Time;durP1;ratioP1;P1;durP2;ratioP2;P2;SDS_P1;SDS_P2;PMS_P1;PMS_P2;Temp;Humidity;BMP_temperature;BMP_pressure;BME280_temperature;BME280_humidity;BME280_pressure;Samples;Min_cycle;Max_cycle;Signal;HPM_P1;HPM_P2
2021/12/11 00:01:57;;;;;;;80.35;40.15;;;;;;;;;;4975520;28;20027;-47
2021/12/11 00:04:28;;;;;;;80.78;42.22;;;;;;;;;;4975554;28;20027;-46
2021/12/11 00:06:54;;;;;;;50.28;28.85;;;;;;;;;;4975627;28;20043;-46
2021/12/11 00:09:40;;;;;;;73.57;39.13;;;;;;;;;;4975471;28;20050;-48
2021/12/11 00:12:10;;;;;;;72.13;37.85;;;;;;;;;;4975225;28;20039;-46
2021/12/11 00:14:37;;;;;;;84.07;43.15;;;;;;;;;;4975163;28;20463;-45
2021/12/11 00:17:03;;;;;;;79.40;43.05;;;;;;;;;;4975180;28;20050;-45
2021/12/11 00:19:33;;;;;;;90.60;44.15;;;;;;;;;;5010545;28;20097;-48
2021/12/11 00:22:09;;;;;;;65.95;36.20;;;;;;;;;;5016346;28;20025;-46
2021/12/11 00:24:36;;;;;;;78.07;40.40;;;;;;;;;;5016333;28;20032;-46
2021/12/11 00:27:10;;;;;;;82.10;41.65;;;;;;;;;;5016086;28;20061;-46
2021/12/11 00:29:37;;;;;;;87.90;43.85;;;;;;;;;;5016330;28;20042;-46
2021/12/11 00:32:10;;;;;;;84.32;42.10;;;;;;;;;;5016315;28;20025;-45
2021/12/11 00:34:38;;;;;;;86.20;41.95;;;;;;;;;;5016036;28;20022;-46
2021/12/11 00:37:06;;;;;;;86.32;42.42;;;;;;;;;;5015924;28;20056;-47
2021/12/11 00:39:37;;;;;;;87.05;40.45;;;;;;;;;;5016143;28;20034;-46
2021/12/11 00:42:03;;;;;;;;;;;;;;;;;;5016294;28;20057;-45
2021/12/11 00:44:51;;;;;;;103.30;46.53;;;;;;;;;;5015861;28;19956;-47
2021/12/11 00:47:27;;;;;;;91.75;43.63;;;;;;;;;;5031067;28;20030;-45
2021/12/11 00:49:55;;;;;;;78.50;36.75;;;;;;;;;;5015535;28;20069;-46
2021/12/11 00:52:47;;;;;;;99.88;44.97;;;;;;;;;;5015569;28;20030;-45
2021/12/11 00:55:19;;;;;;;114.25;50.33;;;;;;;;;;5013460;28;20036;-45
2021/12/11 00:57:49;;;;;;;107.47;47.42;;;;;;;;;;5030508;28;20118;-46
2021/12/11 01:00:19;;;;;;;104.37;43.07;;;;;;;;;;5015605;28;20018;-45
2021/12/11 01:02:47;;;;;;;104.82;44.22;;;;;;;;;;5015569;28;20271;-45
2021/12/11 01:05:13;;;;;;;89.93;38.25;;;;;;;;;;5015566;28;20021;-45
2021/12/11 01:07:40;;;;;;;91.68;40.15;;;;;;;;;;5015568;28;20053;-45
2021/12/11 01:10:32;;;;;;;98.13;43.40;;;;;;;;;;5015464;28;20526;-45
2021/12/11 01:13:02;;;;;;;79.30;38.83;;;;;;;;;;5011284;28;20076;-46
2021/12/11 01:15:33;;;;;;;84.05;37.13;;;;;;;;;;5015369;28;20092;-46
2021/12/11 01:21:00;;;;;;;89.35;42.60;;;;;;;;;;5015749;28;20289;-45
2021/12/11 01:23:45;;;;;;;83.18;36.42;;;;;;;;;;5015083;28;20050;-44
2021/12/11 01:26:13;;;;;;;84.22;36.03;;;;;;;;;;5014972;28;20037;-44
2021/12/11 01:28:40;;;;;;;89.03;36.83;;;;;;;;;;5014881;28;20028;-45
2021/12/11 01:31:08;;;;;;;90.60;36.83;;;;;;;;;;5015101;28;20030;-44
2021/12/11 01:33:35;;;;;;;98.13;43.42;;;;;;;;;;5015060;28;20029;-45
2021/12/11 01:36:01;;;;;;;96.00;39.65;;;;;;;;;;5014917;28;20037;-44
2021/12/11 01:38:29;;;;;;;87.97;37.15;;;;;;;;;;5014686;28;20026;-44
2021/12/11 01:41:00;;;;;;;81.85;34.45;;;;;;;;;;5014876;28;20022;-45
2021/12/11 01:43:28;;;;;;;88.28;37.95;;;;;;;;;;5014823;28;20467;-45
2021/12/11 01:45:55;;;;;;;89.05;37.78;;;;;;;;;;5014748;28;20026;-44
2021/12/11 01:48:23;;;;;;;101.57;39.92;;;;;;;;;;5014746;28;20087;-44
2021/12/11 01:50:54;;;;;;;98.95;40.47;;;;;;;;;;5014489;28;20037;-44
2021/12/11 01:53:21;;;;;;;98.90;41.38;;;;;;;;;;5014844;28;20022;-45
2021/12/11 01:55:53;;;;;;;92.18;36.88;;;;;;;;;;5014680;28;20423;-45
2021/12/11 01:58:24;;;;;;;88.78;38.17;;;;;;;;;;5014425;28;20156;-46
2021/12/11 02:00:57;;;;;;;93.45;38.55;;;;;;;;;;5014666;28;20033;-49
2021/12/11 02:03:27;;;;;;;98.60;39.42;;;;;;;;;;5014492;28;20022;-46
2021/12/11 02:05:53;;;;;;;90.05;35.92;;;;;;;;;;5014058;28;20525;-46
2021/12/11 02:08:21;;;;;;;90.70;36.83;;;;;;;;;;5014607;28;20037;-45
2021/12/11 02:10:52;;;;;;;102.90;40.45;;;;;;;;;;5014471;28;20034;-49
2021/12/11 02:13:28;;;;;;;85.47;34.77;;;;;;;;;;5014165;28;20018;-45
2021/12/11 02:15:54;;;;;;;92.78;37.60;;;;;;;;;;5013978;28;20071;-45
2021/12/11 02:18:22;;;;;;;96.15;39.17;;;;;;;;;;5014014;28;20064;-49
2021/12/11 02:20:51;;;;;;;94.18;36.70;;;;;;;;;;5014350;28;20025;-48
2021/12/11 02:23:18;;;;;;;97.75;35.88;;;;;;;;;;5014260;28;20041;-45
2021/12/11 02:25:46;;;;;;;83.88;33.80;;;;;;;;;;5014307;28;20018;-45
2021/12/11 02:28:30;;;;;;;92.88;36.97;;;;;;;;;;5014265;28;20030;-46
2021/12/11 02:31:05;;;;;;;96.53;39.65;;;;;;;;;;5013783;28;20073;-45
2021/12/11 02:33:34;;;;;;;110.97;41.25;;;;;;;;;;5014317;28;20053;-45
2021/12/11 02:36:09;;;;;;;93.90;37.53;;;;;;;;;;5014073;28;20029;-45
2021/12/11 02:38:50;;;;;;;105.93;40.05;;;;;;;;;;5013944;28;20026;-45
2021/12/11 02:41:19;;;;;;;104.07;39.50;;;;;;;;;;5013641;28;20109;-44
2021/12/11 02:44:00;;;;;;;96.65;38.28;;;;;;;;;;5028474;28;20065;-45
2021/12/11 02:46:26;;;;;;;93.72;37.67;;;;;;;;;;5013776;28;20029;-45
2021/12/11 02:48:56;;;;;;;97.57;38.15;;;;;;;;;;5013695;28;20044;-44
2021/12/11 02:51:22;;;;;;;103.70;39.55;;;;;;;;;;5013769;28;20113;-45
2021/12/11 02:54:00;;;;;;;106.60;40.88;;;;;;;;;;5013522;28;20022;-45
2021/12/11 02:56:32;;;;;;;110.22;40.92;;;;;;;;;;5014059;28;20431;-44
2021/12/11 02:58:59;;;;;;;118.03;43.28;;;;;;;;;;5013642;28;20022;-45
2021/12/11 03:01:31;;;;;;;114.13;45.67;;;;;;;;;;5013802;28;20018;-45
2021/12/11 03:04:10;;;;;;;103.22;39.75;;;;;;;;;;5013703;28;20022;-44
2021/12/11 03:06:41;;;;;;;121.45;47.25;;;;;;;;;;5013481;28;20030;-46
2021/12/11 03:09:08;;;;;;;107.80;43.55;;;;;;;;;;5013469;28;20077;-46
2021/12/11 03:11:34;;;;;;;101.90;41.17;;;;;;;;;;5013583;28;20030;-45
2021/12/11 03:14:04;;;;;;;106.45;42.05;;;;;;;;;;5013594;28;20083;-45
2021/12/11 03:16:32;;;;;;;103.05;38.92;;;;;;;;;;5013897;28;20207;-45
2021/12/11 03:18:59;;;;;;;102.07;38.28;;;;;;;;;;5017950;28;20018;-46
2021/12/11 03:21:25;;;;;;;101.35;40.75;;;;;;;;;;5017231;28;20030;-45
2021/12/11 03:23:52;;;;;;;95.00;36.63;;;;;;;;;;5017661;28;20033;-47
2021/12/11 03:26:19;;;;;;;86.65;36.20;;;;;;;;;;5017286;28;20104;-46
2021/12/11 03:28:45;;;;;;;85.82;34.45;;;;;;;;;;5017121;28;20030;-46
2021/12/11 03:31:12;;;;;;;84.00;35.38;;;;;;;;;;5017486;28;20032;-46
2021/12/11 03:33:40;;;;;;;81.30;35.30;;;;;;;;;;5017299;28;20022;-47
2021/12/11 03:36:08;;;;;;;91.18;41.63;;;;;;;;;;5017316;28;20463;-46
2021/12/11 03:38:35;;;;;;;76.53;33.22;;;;;;;;;;5017068;28;20474;-46
2021/12/11 03:41:02;;;;;;;79.05;30.90;;;;;;;;;;5017121;28;20389;-45
2021/12/11 03:43:29;;;;;;;72.57;32.33;;;;;;;;;;5016864;28;20552;-44
2021/12/11 03:45:57;;;;;;;84.65;35.67;;;;;;;;;;5016967;28;20053;-45
2021/12/11 03:48:26;;;;;;;72.70;30.30;;;;;;;;;;5016912;28;20022;-43
2021/12/11 03:50:53;;;;;;;82.00;35.97;;;;;;;;;;5016797;28;20042;-44
2021/12/11 03:53:19;;;;;;;88.18;36.95;;;;;;;;;;5032283;28;20014;-44
2021/12/11 03:55:50;;;;;;;90.32;37.35;;;;;;;;;;5017005;28;20482;-45
2021/12/11 03:58:17;;;;;;;81.32;32.38;;;;;;;;;;5016841;28;20502;-44
2021/12/11 04:00:55;;;;;;;74.90;31.70;;;;;;;;;;5016722;28;20496;-45
2021/12/11 04:03:23;;;;;;;76.32;29.60;;;;;;;;;;5016592;28;20389;-45
2021/12/11 04:05:50;;;;;;;70.50;28.33;;;;;;;;;;5016843;28;20030;-45
2021/12/11 04:08:19;;;;;;;96.65;28.90;;;;;;;;;;5016636;28;20025;-45
2021/12/11 04:10:46;;;;;;;108.18;29.83;;;;;;;;;;5016534;28;20039;-45
2021/12/11 04:13:14;;;;;;;77.30;27.40;;;;;;;;;;5016234;28;20037;-45
2021/12/11 04:15:40;;;;;;;68.40;26.45;;;;;;;;;;5016253;28;20054;-46
2021/12/11 04:18:07;;;;;;;73.40;26.27;;;;;;;;;;5016416;28;20022;-47
2021/12/11 04:20:36;;;;;;;77.95;25.65;;;;;;;;;;5016571;28;20091;-46
2021/12/11 04:23:03;;;;;;;74.25;26.42;;;;;;;;;;5016436;28;20157;-45
2021/12/11 04:25:29;;;;;;;80.80;28.00;;;;;;;;;;5016388;28;20482;-46
2021/12/11 04:27:55;;;;;;;84.80;28.40;;;;;;;;;;5015949;28;20026;-45
2021/12/11 04:30:22;;;;;;;85.85;30.35;;;;;;;;;;5016540;28;20077;-44
2021/12/11 04:32:49;;;;;;;98.60;30.48;;;;;;;;;;5016102;28;20447;-45
2021/12/11 04:35:16;;;;;;;93.28;29.05;;;;;;;;;;5016343;28;20030;-45
2021/12/11 04:37:43;;;;;;;109.30;33.50;;;;;;;;;;5016173;28;20025;-46
2021/12/11 04:40:12;;;;;;;114.95;37.75;;;;;;;;;;5015967;28;20470;-47
2021/12/11 04:45:32;;;;;;;78.75;29.65;;;;;;;;;;5016393;28;20049;-46
2021/12/11 04:48:11;;;;;;;110.50;40.85;;;;;;;;;;5031028;28;20375;-46
2021/12/11 04:50:59;;;;;;;93.60;33.13;;;;;;;;;;5015796;28;20029;-46
2021/12/11 04:59:13;;;;;;;94.07;34.67;;;;;;;;;;5015691;28;20045;-46
2021/12/11 05:01:46;;;;;;;115.90;42.78;;;;;;;;;;5016287;28;20113;-46
2021/12/11 05:04:38;;;;;;;114.88;43.33;;;;;;;;;;5015401;28;20117;-46
2021/12/11 05:07:20;;;;;;;95.45;34.78;;;;;;;;;;5015372;28;20022;-46
2021/12/11 05:10:15;;;;;;;117.82;41.53;;;;;;;;;;5015374;28;20030;-46
2021/12/11 05:12:42;;;;;;;128.13;49.15;;;;;;;;;;5015314;28;20116;-45
2021/12/11 05:15:13;;;;;;;115.35;42.95;;;;;;;;;;5015385;28;20030;-45
2021/12/11 05:17:39;;;;;;;110.53;39.60;;;;;;;;;;5015453;28;20045;-48
2021/12/11 05:20:06;;;;;;;96.13;35.05;;;;;;;;;;5015303;28;20044;-46
2021/12/11 05:22:33;;;;;;;103.13;37.92;;;;;;;;;;5015236;28;20037;-47
2021/12/11 05:24:59;;;;;;;95.63;35.92;;;;;;;;;;5015405;28;20026;-46
2021/12/11 05:27:26;;;;;;;87.35;33.63;;;;;;;;;;5014987;28;20025;-46
2021/12/11 05:29:52;;;;;;;88.32;33.80;;;;;;;;;;5015029;28;20033;-46
2021/12/11 05:32:21;;;;;;;156.35;65.80;;;;;;;;;;5015120;28;20068;-45
2021/12/11 05:34:47;;;;;;;89.35;35.03;;;;;;;;;;5015003;28;20032;-45
2021/12/11 05:37:14;;;;;;;87.80;36.67;;;;;;;;;;5014965;28;20442;-46
2021/12/11 05:39:40;;;;;;;88.53;37.67;;;;;;;;;;5014241;28;20378;-46
2021/12/11 05:42:06;;;;;;;88.38;38.08;;;;;;;;;;5014726;28;20034;-47
2021/12/11 05:44:32;;;;;;;99.00;39.83;;;;;;;;;;5014834;28;20543;-47
2021/12/11 05:46:59;;;;;;;98.10;40.20;;;;;;;;;;5029861;28;20120;-47
2021/12/11 05:49:27;;;;;;;103.53;40.63;;;;;;;;;;5014852;28;20033;-52
2021/12/11 05:51:53;;;;;;;98.75;34.88;;;;;;;;;;5014957;28;20488;-46
2021/12/11 05:54:23;;;;;;;104.72;36.05;;;;;;;;;;5014633;28;20389;-47
2021/12/11 05:56:50;;;;;;;94.47;35.97;;;;;;;;;;5014389;28;20040;-46
2021/12/11 05:59:18;;;;;;;89.15;34.78;;;;;;;;;;5014654;28;20161;-46
2021/12/11 06:01:50;;;;;;;94.30;37.88;;;;;;;;;;5014456;28;20028;-46
2021/12/11 06:04:19;;;;;;;77.85;30.98;;;;;;;;;;5014361;28;20026;-46
2021/12/11 06:06:45;;;;;;;80.63;32.80;;;;;;;;;;5014330;28;20389;-46
2021/12/11 06:09:13;;;;;;;65.82;30.00;;;;;;;;;;5014304;28;20470;-46
2021/12/11 06:11:41;;;;;;;63.25;28.77;;;;;;;;;;5014492;28;20443;-46
2021/12/11 06:14:07;;;;;;;71.32;31.00;;;;;;;;;;5014148;28;20022;-46
2021/12/11 06:16:34;;;;;;;64.22;28.02;;;;;;;;;;5014130;28;20061;-45
2021/12/11 06:19:04;;;;;;;51.45;25.10;;;;;;;;;;5014240;28;20052;-45
2021/12/11 06:21:31;;;;;;;53.53;26.33;;;;;;;;;;5014308;28;20032;-46
2021/12/11 06:23:57;;;;;;;60.75;26.45;;;;;;;;;;5014349;28;20157;-45
2021/12/11 06:26:23;;;;;;;57.42;26.55;;;;;;;;;;5014091;28;20105;-46
2021/12/11 06:28:49;;;;;;;59.47;28.83;;;;;;;;;;5014239;28;20033;-47
2021/12/11 06:31:19;;;;;;;58.33;28.42;;;;;;;;;;5014041;28;20394;-47
2021/12/11 06:33:48;;;;;;;63.47;30.33;;;;;;;;;;5014295;28;20374;-47
2021/12/11 06:36:15;;;;;;;68.93;32.38;;;;;;;;;;5014090;28;20025;-47
2021/12/11 06:38:42;;;;;;;52.65;26.35;;;;;;;;;;5013829;28;20026;-47
2021/12/11 06:41:10;;;;;;;64.22;31.38;;;;;;;;;;5013845;28;20018;-47
2021/12/11 06:43:37;;;;;;;57.90;28.35;;;;;;;;;;5013625;28;20412;-46
2021/12/11 06:46:03;;;;;;;70.75;34.35;;;;;;;;;;5013674;28;20018;-47
2021/12/11 06:48:29;;;;;;;71.20;33.58;;;;;;;;;;5013689;28;20109;-46
2021/12/11 06:50:56;;;;;;;62.60;31.27;;;;;;;;;;5013685;28;20129;-46
2021/12/11 06:53:42;;;;;;;69.18;33.05;;;;;;;;;;5028763;28;20045;-48
2021/12/11 06:56:10;;;;;;;65.50;30.88;;;;;;;;;;5013579;28;20058;-46
2021/12/11 06:58:36;;;;;;;59.60;28.25;;;;;;;;;;5013578;28;20033;-46
2021/12/11 07:01:03;;;;;;;66.53;29.75;;;;;;;;;;5013809;28;20037;-47
2021/12/11 07:03:29;;;;;;;69.55;35.33;;;;;;;;;;5013607;28;20026;-48
2021/12/11 07:05:55;;;;;;;66.40;32.20;;;;;;;;;;5013636;28;20032;-51
2021/12/11 07:08:23;;;;;;;69.60;35.03;;;;;;;;;;5013492;28;20117;-48
2021/12/11 07:10:49;;;;;;;73.70;39.47;;;;;;;;;;5014069;28;20029;-46
2021/12/11 07:13:16;;;;;;;76.07;38.50;;;;;;;;;;5013474;28;20022;-46
2021/12/11 07:15:42;;;;;;;73.90;35.45;;;;;;;;;;5013273;28;20049;-46
2021/12/11 07:18:09;;;;;;;66.38;33.65;;;;;;;;;;5013345;28;20077;-46
2021/12/11 07:20:35;;;;;;;59.38;31.08;;;;;;;;;;5013393;28;20024;-47
2021/12/11 07:23:02;;;;;;;65.40;33.60;;;;;;;;;;5013537;28;20431;-45
2021/12/11 07:25:34;;;;;;;63.45;31.75;;;;;;;;;;5013260;28;20022;-47
2021/12/11 07:28:03;;;;;;;69.45;31.73;;;;;;;;;;5013702;28;20029;-46
2021/12/11 07:30:30;;;;;;;67.15;32.08;;;;;;;;;;5013147;28;20038;-47
2021/12/11 07:32:56;;;;;;;73.47;33.58;;;;;;;;;;5013240;28;20025;-46
2021/12/11 07:35:23;;;;;;;79.32;33.80;;;;;;;;;;5013236;28;20491;-46
2021/12/11 07:37:50;;;;;;;86.82;36.97;;;;;;;;;;5013744;28;20018;-47
2021/12/11 07:40:18;;;;;;;74.50;32.67;;;;;;;;;;5013423;28;20037;-50
2021/12/11 07:42:45;;;;;;;75.85;33.95;;;;;;;;;;5013482;28;20433;-46
2021/12/11 07:45:11;;;;;;;95.47;43.33;;;;;;;;;;5013270;28;20037;-46
2021/12/11 07:47:37;;;;;;;86.82;41.55;;;;;;;;;;5013188;28;20034;-49
2021/12/11 07:50:04;;;;;;;83.03;39.25;;;;;;;;;;5013131;28;20030;-47
2021/12/11 07:52:30;;;;;;;77.38;36.85;;;;;;;;;;5013334;28;20022;-50
2021/12/11 07:54:56;;;;;;;80.47;38.42;;;;;;;;;;5013269;28;20030;-47
2021/12/11 07:57:23;;;;;;;83.13;39.25;;;;;;;;;;5013096;28;20068;-47
2021/12/11 07:59:49;;;;;;;75.03;36.05;;;;;;;;;;5013005;28;20054;-47
2021/12/11 08:02:15;;;;;;;73.32;34.90;;;;;;;;;;5013128;28;20441;-46
2021/12/11 08:04:41;;;;;;;77.35;34.63;;;;;;;;;;5017275;28;20026;-46
2021/12/11 08:07:07;;;;;;;71.05;34.40;;;;;;;;;;5016573;28;20026;-47
2021/12/11 08:09:34;;;;;;;71.28;34.35;;;;;;;;;;5016736;28;20092;-47
2021/12/11 08:12:00;;;;;;;74.25;37.00;;;;;;;;;;5016748;28;20088;-47
2021/12/11 08:14:27;;;;;;;80.55;39.17;;;;;;;;;;5016446;28;20052;-47
2021/12/11 08:16:56;;;;;;;74.80;37.03;;;;;;;;;;5016615;28;20129;-47
2021/12/11 08:19:23;;;;;;;68.50;36.63;;;;;;;;;;5016270;28;20037;-49
2021/12/11 08:21:52;;;;;;;70.97;36.20;;;;;;;;;;5016206;28;20049;-46
2021/12/11 08:24:19;;;;;;;75.90;37.42;;;;;;;;;;5016296;28;20474;-48
2021/12/11 08:26:46;;;;;;;85.82;40.70;;;;;;;;;;5016357;28;20060;-47
2021/12/11 08:29:13;;;;;;;84.13;38.90;;;;;;;;;;5016079;28;20462;-47
2021/12/11 08:31:41;;;;;;;83.25;39.70;;;;;;;;;;5016153;28;20026;-48
2021/12/11 08:34:07;;;;;;;93.90;41.85;;;;;;;;;;5016069;28;20050;-47
2021/12/11 08:36:33;;;;;;;78.90;38.60;;;;;;;;;;5016036;28;20136;-47
2021/12/11 08:38:59;;;;;;;93.18;43.97;;;;;;;;;;5016058;28;20025;-49
2021/12/11 08:41:28;;;;;;;119.72;55.45;;;;;;;;;;5016025;28;20030;-46
2021/12/11 08:44:03;;;;;;;93.07;43.20;;;;;;;;;;5022507;28;20473;-45
2021/12/11 08:46:31;;;;;;;93.35;43.42;;;;;;;;;;5034997;28;20033;-45
2021/12/11 08:49:00;;;;;;;91.78;44.45;;;;;;;;;;5035157;28;20504;-48
2021/12/11 08:51:35;;;;;;;84.28;40.15;;;;;;;;;;5035045;28;20501;-51
2021/12/11 08:54:01;;;;;;;85.25;39.10;;;;;;;;;;5035240;28;20028;-47
2021/12/11 08:56:28;;;;;;;81.72;39.97;;;;;;;;;;5035038;28;20029;-45
2021/12/11 08:58:54;;;;;;;80.93;40.65;;;;;;;;;;5034960;28;20018;-46
2021/12/11 09:01:24;;;;;;;74.55;37.67;;;;;;;;;;5034926;28;20017;-46
2021/12/11 09:03:53;;;;;;;89.03;40.72;;;;;;;;;;5034599;28;20119;-46
2021/12/11 09:06:22;;;;;;;90.15;41.97;;;;;;;;;;5034689;28;20032;-47
2021/12/11 09:08:57;;;;;;;112.05;53.50;;;;;;;;;;5034665;28;20017;-47
2021/12/11 09:11:28;;;;;;;92.45;44.50;;;;;;;;;;5034692;28;20037;-47
2021/12/11 09:13:59;;;;;;;75.20;37.42;;;;;;;;;;5031356;28;20053;-45
2021/12/11 09:16:27;;;;;;;79.95;38.92;;;;;;;;;;5034072;28;20071;-49
2021/12/11 09:18:58;;;;;;;88.55;40.50;;;;;;;;;;5032354;28;20033;-46
2021/12/11 09:21:50;;;;;;;90.78;41.30;;;;;;;;;;5034679;28;20029;-48
2021/12/11 09:24:24;;;;;;;92.35;42.47;;;;;;;;;;5032487;28;20481;-46
2021/12/11 09:27:05;;;;;;;88.40;39.88;;;;;;;;;;5034352;28;20029;-46
2021/12/11 09:29:31;;;;;;;93.45;41.20;;;;;;;;;;5033824;28;20547;-47
2021/12/11 09:32:06;;;;;;;86.60;37.67;;;;;;;;;;5033654;28;20036;-48
2021/12/11 09:34:36;;;;;;;86.10;41.67;;;;;;;;;;5032133;28;20036;-46
2021/12/11 09:37:03;;;;;;;89.10;42.60;;;;;;;;;;5034206;28;20025;-46
2021/12/11 09:39:51;;;;;;;85.22;39.58;;;;;;;;;;5034014;28;20025;-46
2021/12/11 09:42:17;;;;;;;80.15;37.90;;;;;;;;;;5032702;28;20068;-46
2021/12/11 09:44:59;;;;;;;84.28;39.65;;;;;;;;;;5033903;28;20024;-51
2021/12/11 09:47:30;;;;;;;82.53;38.75;;;;;;;;;;5033771;28;20037;-47
2021/12/11 09:49:59;;;;;;;93.40;40.60;;;;;;;;;;5034291;28;20045;-46
2021/12/11 09:52:27;;;;;;;84.03;39.40;;;;;;;;;;5033903;28;20014;-47
2021/12/11 09:54:56;;;;;;;76.93;36.55;;;;;;;;;;5033862;28;20057;-49
2021/12/11 09:57:23;;;;;;;84.10;41.40;;;;;;;;;;5033878;28;20026;-46
2021/12/11 09:59:52;;;;;;;81.82;38.40;;;;;;;;;;5033728;28;20462;-48
2021/12/11 10:02:23;;;;;;;72.50;34.83;;;;;;;;;;5033611;28;20488;-48
2021/12/11 10:04:59;;;;;;;79.17;38.57;;;;;;;;;;5031266;28;20048;-48
2021/12/11 10:07:29;;;;;;;89.72;41.72;;;;;;;;;;5034065;28;20278;-47
2021/12/11 10:10:05;;;;;;;96.28;44.60;;;;;;;;;;5034199;28;20028;-46
2021/12/11 10:12:36;;;;;;;77.18;37.67;;;;;;;;;;5034069;28;20492;-52
2021/12/11 10:15:14;;;;;;;91.82;42.90;;;;;;;;;;5034327;28;20458;-49
2021/12/11 10:17:44;;;;;;;76.85;36.10;;;;;;;;;;5033869;28;20037;-51
2021/12/11 10:20:14;;;;;;;75.88;33.88;;;;;;;;;;5031179;28;20104;-46
2021/12/11 10:22:43;;;;;;;73.95;34.33;;;;;;;;;;5030536;28;20025;-49
2021/12/11 10:25:13;;;;;;;84.60;40.58;;;;;;;;;;5033123;28;20022;-46
2021/12/11 10:27:39;;;;;;;66.28;33.35;;;;;;;;;;5033394;28;20056;-49
2021/12/11 10:30:06;;;;;;;84.55;39.60;;;;;;;;;;5033391;28;20112;-50
2021/12/11 10:32:33;;;;;;;63.20;32.30;;;;;;;;;;5033384;28;20026;-46
2021/12/11 10:35:06;;;;;;;68.35;33.67;;;;;;;;;;5033208;28;20478;-45
2021/12/11 10:37:36;;;;;;;64.20;32.50;;;;;;;;;;5031060;28;20018;-45
2021/12/11 10:40:19;;;;;;;74.85;36.65;;;;;;;;;;5033670;28;20048;-47
2021/12/11 10:42:49;;;;;;;67.90;33.10;;;;;;;;;;5025009;28;20500;-49
2021/12/11 10:45:17;;;;;;;73.15;35.25;;;;;;;;;;5027765;28;20067;-47
2021/12/11 10:47:47;;;;;;;69.32;36.00;;;;;;;;;;5029334;28;20507;-46
2021/12/11 10:50:20;;;;;;;66.70;33.40;;;;;;;;;;5028770;28;20041;-46
2021/12/11 10:52:48;;;;;;;60.75;32.78;;;;;;;;;;5027448;28;20512;-45
2021/12/11 10:55:17;;;;;;;71.03;35.60;;;;;;;;;;5029321;28;20115;-47
2021/12/11 10:57:43;;;;;;;67.00;35.75;;;;;;;;;;5027496;28;20091;-46
2021/12/11 11:00:16;;;;;;;74.18;38.88;;;;;;;;;;5028986;28;20021;-46
2021/12/11 11:02:43;;;;;;;71.03;36.47;;;;;;;;;;5028939;28;20146;-46
2021/12/11 11:05:13;;;;;;;71.55;36.70;;;;;;;;;;5028008;28;20017;-45
2021/12/11 11:07:39;;;;;;;76.97;38.33;;;;;;;;;;5029124;28;20064;-44
2021/12/11 11:10:07;;;;;;;75.20;37.90;;;;;;;;;;5028773;28;20829;-45
2021/12/11 11:12:35;;;;;;;70.35;33.80;;;;;;;;;;5026383;28;20551;-44
2021/12/11 11:15:02;;;;;;;67.45;31.98;;;;;;;;;;5028613;28;20029;-44
2021/12/11 11:17:29;;;;;;;83.40;39.58;;;;;;;;;;5028981;28;20524;-44
2021/12/11 11:19:55;;;;;;;79.07;37.53;;;;;;;;;;5028878;28;20036;-46
2021/12/11 11:22:26;;;;;;;79.97;39.97;;;;;;;;;;5028272;28;20021;-43
2021/12/11 11:25:01;;;;;;;75.93;36.72;;;;;;;;;;5028887;28;20025;-44
2021/12/11 11:27:28;;;;;;;68.30;34.53;;;;;;;;;;5026915;28;20021;-54
2021/12/11 11:29:54;;;;;;;82.25;39.03;;;;;;;;;;5028594;28;20029;-47
2021/12/11 11:32:31;;;;;;;86.35;41.65;;;;;;;;;;5028356;28;20064;-43
2021/12/11 11:35:07;;;;;;;90.35;42.75;;;;;;;;;;5028001;28;20025;-42
2021/12/11 11:37:35;;;;;;;101.05;53.17;;;;;;;;;;5026698;28;20038;-45
2021/12/11 11:40:06;;;;;;;131.45;62.08;;;;;;;;;;5032806;28;20454;-43
2021/12/11 11:42:33;;;;;;;105.10;47.70;;;;;;;;;;5032242;28;20032;-47
2021/12/11 11:44:59;;;;;;;96.63;40.60;;;;;;;;;;5032264;28;20541;-43
2021/12/11 11:47:25;;;;;;;109.20;43.58;;;;;;;;;;5032051;28;20559;-49
2021/12/11 11:49:58;;;;;;;100.45;41.13;;;;;;;;;;5032503;28;20033;-43
2021/12/11 11:52:24;;;;;;;100.28;41.92;;;;;;;;;;5031437;28;20138;-42
2021/12/11 11:54:52;;;;;;;107.32;42.30;;;;;;;;;;5032502;28;20021;-41
2021/12/11 11:57:23;;;;;;;114.70;45.97;;;;;;;;;;5032290;28;20026;-45
2021/12/11 11:59:52;;;;;;;111.00;47.78;;;;;;;;;;5032278;28;20021;-42
2021/12/11 12:02:21;;;;;;;107.28;42.67;;;;;;;;;;5032249;28;20028;-40
2021/12/11 12:04:51;;;;;;;94.43;40.53;;;;;;;;;;5032308;28;20393;-50
2021/12/11 12:07:18;;;;;;;100.65;44.22;;;;;;;;;;5031893;28;20822;-43
2021/12/11 12:09:48;;;;;;;96.28;42.70;;;;;;;;;;5029613;28;20030;-46
2021/12/11 12:12:15;;;;;;;104.85;47.30;;;;;;;;;;5032310;28;20021;-41
2021/12/11 12:14:42;;;;;;;100.38;41.40;;;;;;;;;;5032000;28;20579;-43
2021/12/11 12:17:09;;;;;;;104.20;44.65;;;;;;;;;;5031455;28;20230;-45
2021/12/11 12:19:35;;;;;;;105.63;42.42;;;;;;;;;;5030937;28;20118;-42
2021/12/11 12:22:03;;;;;;;93.57;41.42;;;;;;;;;;5031608;28;20029;-43
2021/12/11 12:24:31;;;;;;;98.35;41.10;;;;;;;;;;5029198;28;20025;-42
2021/12/11 12:26:58;;;;;;;102.30;42.75;;;;;;;;;;5031959;28;20140;-47
2021/12/11 12:29:24;;;;;;;89.78;40.13;;;;;;;;;;5032181;28;20112;-44
2021/12/11 12:31:52;;;;;;;105.00;45.25;;;;;;;;;;5031460;28;20029;-42
2021/12/11 12:34:19;;;;;;;105.53;43.58;;;;;;;;;;5031890;28;20495;-45
2021/12/11 12:36:45;;;;;;;105.13;48.00;;;;;;;;;;5031612;28;20025;-44
2021/12/11 12:39:12;;;;;;;111.25;47.78;;;;;;;;;;5029381;28;20091;-46
2021/12/11 12:41:44;;;;;;;99.60;43.53;;;;;;;;;;5031510;28;20390;-45
2021/12/11 12:44:19;;;;;;;106.03;46.95;;;;;;;;;;5031518;28;20040;-49
2021/12/11 12:46:48;;;;;;;104.05;44.55;;;;;;;;;;5029580;28;20479;-44
2021/12/11 12:49:14;;;;;;;101.60;47.20;;;;;;;;;;5031398;28;20491;-47
2021/12/11 12:51:40;;;;;;;95.53;45.50;;;;;;;;;;5031406;28;20423;-47
2021/12/11 12:54:08;;;;;;;98.15;45.47;;;;;;;;;;5031162;28;20132;-47
2021/12/11 12:56:37;;;;;;;95.60;45.55;;;;;;;;;;5031307;28;20402;-47
2021/12/11 12:59:15;;;;;;;104.20;47.00;;;;;;;;;;5028794;28;20541;-48
2021/12/11 13:02:01;;;;;;;97.22;42.30;;;;;;;;;;5030232;28;20370;-44
2021/12/11 13:04:28;;;;;;;95.30;42.63;;;;;;;;;;5030869;28;20029;-49
2021/12/11 13:06:56;;;;;;;97.30;43.75;;;;;;;;;;5031074;28;20366;-45
2021/12/11 13:09:26;;;;;;;97.15;43.05;;;;;;;;;;5030858;28;20338;-45
2021/12/11 13:11:54;;;;;;;90.43;39.50;;;;;;;;;;5030527;28;20447;-47
2021/12/11 13:14:21;;;;;;;89.50;40.97;;;;;;;;;;5028440;28;20033;-44
2021/12/11 13:16:50;;;;;;;99.97;43.97;;;;;;;;;;5031147;28;20049;-50
2021/12/11 13:19:21;;;;;;;88.95;40.75;;;;;;;;;;5028240;28;20115;-44
2021/12/11 13:22:01;;;;;;;86.32;39.55;;;;;;;;;;5030699;28;20057;-43
2021/12/11 13:24:27;;;;;;;87.97;40.33;;;;;;;;;;5030825;28;20096;-42
2021/12/11 13:26:55;;;;;;;88.25;42.15;;;;;;;;;;5030013;28;20021;-44
2021/12/11 13:29:23;;;;;;;99.25;41.10;;;;;;;;;;5028664;28;20104;-43
2021/12/11 13:31:51;;;;;;;115.30;45.90;;;;;;;;;;5030641;28;20044;-43
2021/12/11 13:34:18;;;;;;;120.60;48.05;;;;;;;;;;5030728;28;20017;-46
2021/12/11 13:36:45;;;;;;;102.35;44.60;;;;;;;;;;5030132;28;20184;-43
2021/12/11 13:39:14;;;;;;;91.90;41.72;;;;;;;;;;5030569;28;20198;-41
2021/12/11 13:41:45;;;;;;;99.47;42.72;;;;;;;;;;5030698;28;20040;-43
2021/12/11 13:44:12;;;;;;;85.88;39.85;;;;;;;;;;5030115;28;20090;-44
2021/12/11 13:46:38;;;;;;;92.15;39.88;;;;;;;;;;5030315;28;20036;-41
2021/12/11 13:49:05;;;;;;;89.28;41.88;;;;;;;;;;5030146;28;20162;-45
2021/12/11 13:51:33;;;;;;;83.10;39.60;;;;;;;;;;5029842;28;20041;-44
2021/12/11 13:53:59;;;;;;;76.60;38.67;;;;;;;;;;5029806;28;20022;-44
2021/12/11 13:56:33;;;;;;;76.40;36.22;;;;;;;;;;5030055;28;20500;-44
2021/12/11 13:59:00;;;;;;;67.32;36.80;;;;;;;;;;5028918;28;20457;-44
2021/12/11 14:01:31;;;;;;;83.82;40.47;;;;;;;;;;5029613;28;20025;-46
2021/12/11 14:03:58;;;;;;;69.05;37.17;;;;;;;;;;5028810;28;20136;-41
2021/12/11 14:06:28;;;;;;;80.95;38.88;;;;;;;;;;5029815;28;20028;-45
2021/12/11 14:09:00;;;;;;;79.93;39.53;;;;;;;;;;5029224;28;20029;-44
2021/12/11 14:11:26;;;;;;;;;;;;;;;;;;5028555;28;20033;-42
2021/12/11 14:13:52;;;;;;;82.53;40.25;;;;;;;;;;5030010;28;19939;-45
2021/12/11 14:16:22;;;;;;;78.63;39.78;;;;;;;;;;5029447;28;20047;-45
2021/12/11 14:18:49;;;;;;;80.28;39.20;;;;;;;;;;5029605;28;20095;-44
2021/12/11 14:21:18;;;;;;;80.47;38.47;;;;;;;;;;5029229;28;20032;-46
2021/12/11 14:23:45;;;;;;;75.55;38.67;;;;;;;;;;5028490;28;20133;-44
2021/12/11 14:26:15;;;;;;;75.10;38.65;;;;;;;;;;5024062;28;20037;-50
2021/12/11 14:28:42;;;;;;;69.20;36.95;;;;;;;;;;5029801;28;20049;-49
2021/12/11 14:31:10;;;;;;;79.38;39.38;;;;;;;;;;5027143;28;20069;-43
2021/12/11 14:33:37;;;;;;;74.68;38.90;;;;;;;;;;5025191;28;20029;-48
2021/12/11 14:36:06;;;;;;;99.85;48.75;;;;;;;;;;5027685;28;20074;-44
2021/12/11 14:38:32;;;;;;;79.95;38.95;;;;;;;;;;5027052;28;20033;-48
2021/12/11 14:40:59;;;;;;;76.65;36.50;;;;;;;;;;5005439;28;20035;-46